Last 24 Hours

Modesto Jr College

15 Minute Data | America/Los_Angeles
as of 7/31/21 2:46 PM PDT
Date & Time Temp (°F) RH (%) Dew Pt (°F) Wind Spd (mph) Wind Dir (°) Wind Gust (mph) Latest Rain (In) Daily Rain (In) Daily Min Temp (°F) Daily Max Temp (°F)
7/31/21 - 1445 90.5 39 62.2 4.6 NNW | 329 10.3 0.00 0.00 61.7 91.0
7/31/21 - 1430 89.9 38 61.0 4.4 NNW | 340 7.9 0.00 0.00 61.7 90.4
7/31/21 - 1415 89.6 38 60.6 4.7 NNW | 342 8.1 0.00 0.00 61.7 90.4
7/31/21 - 1400 89.9 37 60.3 4.5 NW | 311 9.4 0.00 0.00 61.7 90.4
7/31/21 - 1345 89.3 37 59.2 4.8 WNW | 297 9.0 0.00 0.00 61.7 89.8
7/31/21 - 1330 88.0 38 58.9 4.1 N | 350 7.7 0.00 0.00 61.7 88.9
7/31/21 - 1315 88.0 40 60.7 4.5 NNW | 341 9.0 0.00 0.00 61.7 88.9
7/31/21 - 1300 88.4 38 59.6 4.6 NW | 308 9.4 0.00 0.00 61.7 88.9
7/31/21 - 1245 87.8 39 60.1 4.4 NW | 312 9.0 0.00 0.00 61.7 88.6
7/31/21 - 1230 87.6 39 59.6 4.5 WNW | 299 8.3 0.00 0.00 61.7 88.2
7/31/21 - 1215 86.9 40 59.4 3.8 WNW | 297 9.0 0.00 0.00 61.7 87.7
7/31/21 - 1200 86.0 41 59.3 3.0 WNW | 294 7.0 0.00 0.00 61.7 87.3
7/31/21 - 1145 84.3 43 59.6 3.4 NNW | 339 7.5 0.00 0.00 61.7 84.9
7/31/21 - 1130 83.8 43 59.0 3.8 NNW | 331 7.9 0.00 0.00 61.7 84.3
7/31/21 - 1115 82.8 45 59.1 3.6 NW | 322 7.5 0.00 0.00 61.7 83.7
7/31/21 - 1100 81.7 43 57.4 4.2 NW | 311 7.2 0.00 0.00 61.7 82.5
7/31/21 - 1045 80.9 45 57.7 4.3 NNW | 336 7.5 0.00 0.00 61.7 81.7
7/31/21 - 1030 80.9 47 58.7 3.3 NNW | 331 7.2 0.00 0.00 61.7 81.7
7/31/21 - 1015 79.7 46 57.2 3.9 NW | 313 7.9 0.00 0.00 61.7 80.8
7/31/21 - 1000 79.1 48 57.5 3.3 WNW | 299 7.2 0.00 0.00 61.7 80.8
7/31/21 - 0945 78.2 48 56.8 3.5 NW | 308 7.2 0.00 0.00 61.7 79.0
7/31/21 - 0930 78.3 48 57.2 3.9 NW | 305 6.4 0.00 0.00 61.7 79.0
7/31/21 - 0915 76.6 52 57.4 2.7 NW | 309 5.5 0.00 0.00 61.7 78.8
7/31/21 - 0900 75.3 52 56.4 4.1 WNW | 301 8.1 0.00 0.00 61.7 76.6
7/31/21 - 0845 73.1 56 56.6 3.5 NW | 320 6.4 0.00 0.00 61.7 76.6
7/31/21 - 0830 71.3 59 56.0 4.4 NNW | 334 7.5 0.00 0.00 61.7 76.6
7/31/21 - 0815 70.6 59 55.6 4.9 NNW | 332 8.3 0.00 0.00 61.7 76.6
7/31/21 - 0800 70.2 59 55.3 4.2 NNW | 335 6.6 0.00 0.00 61.7 76.6
7/31/21 - 0745 69.2 61 55.2 3.6 NW | 325 5.9 0.00 0.00 61.7 76.6
7/31/21 - 0730 67.8 63 54.7 3.5 NW | 318 5.9 0.00 0.00 61.7 76.6
7/31/21 - 0715 66.7 64 54.0 4.1 NW | 320 6.8 0.00 0.00 61.7 76.6
7/31/21 - 0700 65.2 67 53.9 2.5 NW | 325 4.2 0.00 0.00 61.7 76.6
7/31/21 - 0645 64.4 66 52.6 2.6 NW | 310 4.4 0.00 0.00 61.7 76.6
7/31/21 - 0630 64.1 65 52.0 3.2 NNW | 331 5.7 0.00 0.00 61.7 76.6
7/31/21 - 0615 62.7 68 52.0 3.4 NNW | 330 7.0 0.00 0.00 61.7 76.6
7/31/21 - 0600 62.1 73 53.5 1.2 NW | 304 2.4 0.00 0.00 61.7 76.6
7/31/21 - 0545 62.8 71 53.2 0.6 W | 274 1.8 0.00 0.00 62.3 76.6
7/31/21 - 0530 63.5 66 52.0 0.6 WSW | 254 1.5 0.00 0.00 62.9 76.6
7/31/21 - 0515 63.6 67 52.6 0.4 WSW | 245 2.0 0.00 0.00 63.1 76.6
7/31/21 - 0500 64.2 65 52.1 0.1 W | 260 1.8 0.00 0.00 63.8 76.6
7/31/21 - 0445 64.2 65 52.1 0.4 WNW | 288 2.0 0.00 0.00 63.9 76.6
7/31/21 - 0430 64.8 63 52.0 0.9 WNW | 289 2.2 0.00 0.00 64.2 76.6
7/31/21 - 0415 65.5 61 51.5 1.9 WNW | 284 3.7 0.00 0.00 65.0 76.6
7/31/21 - 0400 65.9 57 50.4 2.7 W | 277 3.7 0.00 0.00 65.7 76.6
7/31/21 - 0345 66.1 57 50.6 2.9 W | 268 4.2 0.00 0.00 65.8 76.6
7/31/21 - 0330 67.2 55 50.4 2.5 WNW | 287 4.4 0.00 0.00 66.6 76.6
7/31/21 - 0315 68.2 52 50.1 1.9 NW | 304 2.6 0.00 0.00 67.4 76.6
7/31/21 - 0300 68.9 48 48.6 2.2 WNW | 289 3.9 0.00 0.00 68.4 76.6
7/31/21 - 0245 70.2 46 48.4 0.9 W | 272 2.2 0.00 0.00 69.4 76.6
7/31/21 - 0230 71.7 42 47.2 1.9 NW | 321 3.9 0.00 0.00 70.8 76.6
7/31/21 - 0215 72.5 39 46.1 3.5 N | 6 7.0 0.00 0.00 72.0 76.6
7/31/21 - 0200 73.4 38 46.6 2.8 N | 2 7.2 0.00 0.00 73.0 76.6
7/31/21 - 0145 74.3 38 47.3 3.5 N | 8 6.4 0.00 0.00 73.6 76.6
7/31/21 - 0130 75.6 36 47.1 4.2 N | 6 8.1 0.00 0.00 74.7 76.6
7/31/21 - 0115 76.2 35 46.9 5.9 N | 357 11.4 0.00 0.00 75.8 76.6
7/31/21 - 0100 76.3 36 47.2 5.7 N | 355 13.8 0.00 0.00 66.2 98.8
7/31/21 - 0045 76.0 36 47.2 7.1 N | 357 15.1 0.00 0.00 66.2 98.8
7/31/21 - 0030 75.2 38 47.8 5.2 N | 7 9.4 0.00 0.00 66.2 98.8
7/31/21 - 0015 75.9 36 47.4 5.2 N | 9 10.1 0.00 0.00 66.2 98.8
7/31/21 - 0000 76.1 36 46.9 5.5 N | 3 9.0 0.00 0.00 66.2 98.8
7/30/21 - 2345 76.3 36 47.1 3.8 N | 359 6.8 0.00 0.00 66.2 98.8
7/30/21 - 2330 77.8 34 46.8 4.0 NNE | 14 6.6 0.00 0.00 66.2 98.8
7/30/21 - 2315 79.8 30 45.6 4.2 N | 2 8.1 0.00 0.00 66.2 98.8
7/30/21 - 2300 80.2 29 45.2 5.5 NNW | 333 12.7 0.00 0.00 66.2 98.8
7/30/21 - 2245 80.2 30 45.9 5.0 NW | 323 11.2 0.00 0.00 66.2 98.8
7/30/21 - 2230 80.6 29 45.6 5.9 NW | 321 12.1 0.00 0.00 66.2 98.8
7/30/21 - 2215 80.5 30 45.9 5.6 NW | 309 10.1 0.00 0.00 66.2 98.8
7/30/21 - 2200 79.9 33 48.4 4.4 NW | 323 10.5 0.00 0.00 66.2 98.8
7/30/21 - 2145 80.8 33 48.8 4.6 NW | 326 11.2 0.00 0.00 66.2 98.8
7/30/21 - 2130 82.1 31 48.1 5.9 NNW | 336 11.2 0.00 0.00 66.2 98.8
7/30/21 - 2115 82.9 30 48.7 5.5 NNW | 334 10.1 0.00 0.00 66.2 98.8
7/30/21 - 2100 84.1 29 48.9 5.4 NNW | 336 9.6 0.00 0.00 66.2 98.8
7/30/21 - 2045 85.0 30 50.0 5.0 NNW | 342 9.9 0.00 0.00 66.2 98.8
7/30/21 - 2030 87.3 28 49.8 5.2 NNW | 330 14.2 0.00 0.00 66.2 98.8
7/30/21 - 2015 88.1 27 50.1 6.1 NW | 322 13.4 0.00 0.00 66.2 98.8
7/30/21 - 2000 89.3 28 52.1 5.3 NW | 314 10.7 0.00 0.00 66.2 98.8
7/30/21 - 1945 90.7 28 53.0 6.0 NW | 306 11.0 0.00 0.00 66.2 98.8
7/30/21 - 1930 92.3 28 54.5 6.5 WNW | 295 12.3 0.00 0.00 66.2 98.8
7/30/21 - 1915 93.8 28 56.1 6.2 WNW | 295 11.2 0.00 0.00 66.2 98.8
7/30/21 - 1900 94.7 29 57.8 5.9 WNW | 301 11.4 0.00 0.00 66.2 98.8
7/30/21 - 1845 95.2 32 60.7 5.6 NW | 316 13.4 0.00 0.00 66.2 98.8
7/30/21 - 1830 96.0 32 61.3 5.3 NW | 310 9.4 0.00 0.00 66.2 98.8
7/30/21 - 1815 96.0 32 61.1 6.1 NW | 325 11.2 0.00 0.00 66.2 98.8
7/30/21 - 1800 97.1 32 62.7 4.8 NW | 313 9.4 0.00 0.00 66.2 98.8
7/30/21 - 1745 97.0 32 62.4 5.4 NW | 316 9.4 0.00 0.00 66.2 98.8
7/30/21 - 1730 97.9 32 63.0 4.8 NW | 312 9.4 0.00 0.00 66.2 98.8
7/30/21 - 1715 98.0 31 62.1 5.6 WNW | 301 10.7 0.00 0.00 66.2 98.8
7/30/21 - 1700 98.2 30 61.9 6.4 WNW | 292 12.3 0.00 0.00 66.2 98.8
7/30/21 - 1645 97.9 30 61.2 6.8 WNW | 293 11.2 0.00 0.00 66.2 98.8
7/30/21 - 1630 97.9 30 61.0 7.1 WNW | 295 12.5 0.00 0.00 66.2 98.8
7/30/21 - 1615 98.4 31 62.5 6.6 WNW | 289 12.9 0.00 0.00 66.2 98.8
7/30/21 - 1600 98.1 32 62.9 6.7 WNW | 295 12.3 0.00 0.00 66.2 98.6
7/30/21 - 1545 97.8 32 62.5 6.2 NW | 308 10.7 0.00 0.00 66.2 98.3
7/30/21 - 1530 97.3 33 62.9 6.0 NNW | 328 10.7 0.00 0.00 66.2 98.0
7/30/21 - 1515 97.6 31 62.1 6.3 NW | 305 11.6 0.00 0.00 66.2 98.0
7/30/21 - 1500 97.3 31 61.2 6.2 WNW | 296 11.4 0.00 0.00 66.2 97.7
7/30/21 - 1445 96.8 31 60.9 6.0 WNW | 301 12.5 0.00 0.00 66.2 97.3
Max 98.4 73 63.0 7.1 - 15.1 0.00 0.00 75.8 98.8
Avg 80.9 42 54.5 4.3 - 8.3 0.00 - - -
Min 62.1 27 45.2 0.1 - 1.5 0.00 0.00 61.7 76.6
Total - - - - - - 0.00 - - -